Time;durP1;ratioP1;P1;durP2;ratioP2;P2;SDS_P1;SDS_P2;PMS_P1;PMS_P2;Temp;Humidity;BMP_temperature;BMP_pressure;BME280_temperature;BME280_humidity;BME280_pressure;Samples;Min_cycle;Max_cycle;Signal;HPM_P1;HPM_P2
2021/12/30 00:02:14;;;;;;;33.25;4.97;;;;;;;12.28;100.00;100719.78;5066340;28;20076;-72
2021/12/30 00:04:40;;;;;;;29.52;5.40;;;;;;;12.26;100.00;100715.66;5085773;28;20506;-72
2021/12/30 00:07:05;;;;;;;25.95;4.88;;;;;;;12.25;100.00;100720.38;5087901;28;20023;-72
2021/12/30 00:09:31;;;;;;;28.25;5.00;;;;;;;12.25;100.00;100728.75;5075799;28;20116;-72
2021/12/30 00:11:56;;;;;;;33.13;5.35;;;;;;;12.26;100.00;100727.63;5076916;28;20495;-72
2021/12/30 00:14:22;;;;;;;37.63;5.32;;;;;;;12.25;100.00;100737.09;5080935;28;20023;-72
2021/12/30 00:16:47;;;;;;;30.58;5.18;;;;;;;12.24;100.00;100732.66;5055008;28;20027;-72
2021/12/30 00:19:13;;;;;;;29.40;5.20;;;;;;;12.25;100.00;100731.53;5045088;28;20031;-72
2021/12/30 00:21:39;;;;;;;43.65;5.40;;;;;;;12.24;100.00;100729.88;5048162;28;20051;-72
2021/12/30 00:24:05;;;;;;;37.42;6.07;;;;;;;12.25;100.00;100734.31;5064973;28;20055;-72
2021/12/30 00:26:30;;;;;;;45.05;5.68;;;;;;;12.25;100.00;100739.06;5068646;28;20037;-72
2021/12/30 00:28:56;;;;;;;36.83;5.90;;;;;;;12.24;100.00;100737.41;5080609;28;21720;-72
2021/12/30 00:31:22;;;;;;;47.10;6.40;;;;;;;12.23;100.00;100735.72;5092313;28;20474;-72
2021/12/30 00:33:47;;;;;;;47.60;6.70;;;;;;;12.22;100.00;100743.25;5097506;28;20035;-72
2021/12/30 00:36:13;;;;;;;46.42;6.32;;;;;;;12.22;100.00;100743.25;5097447;27;20054;-72
2021/12/30 00:38:40;;;;;;;48.83;6.28;;;;;;;12.21;100.00;100755.53;5082552;28;20515;-72
2021/12/30 00:41:07;;;;;;;53.17;6.85;;;;;;;12.21;100.00;100755.53;5096347;28;20039;-72
2021/12/30 00:43:32;;;;;;;51.97;7.13;;;;;;;12.20;100.00;100751.13;5106077;27;20026;-73
2021/12/30 00:45:58;;;;;;;43.45;7.38;;;;;;;12.18;100.00;100747.78;5107374;28;20031;-72
2021/12/30 00:48:25;;;;;;;48.42;8.02;;;;;;;12.19;100.00;100752.22;5106973;28;20519;-72
2021/12/30 00:50:50;;;;;;;51.38;8.57;;;;;;;12.19;100.00;100759.75;5095869;27;20372;-72
2021/12/30 00:53:16;;;;;;;43.30;6.97;;;;;;;12.19;100.00;100766.13;5111984;28;20097;-72
2021/12/30 00:55:41;;;;;;;57.10;6.88;;;;;;;12.17;100.00;100778.69;5081636;28;20039;-72
2021/12/30 00:58:07;;;;;;;48.42;6.75;;;;;;;12.16;100.00;100772.31;5082617;28;20035;-72
2021/12/30 01:00:33;;;;;;;48.08;6.78;;;;;;;12.15;100.00;100780.97;5077722;28;20483;-72
2021/12/30 01:02:59;;;;;;;49.42;6.95;;;;;;;12.17;100.00;100785.09;5101831;28;20038;-72
2021/12/30 01:05:24;;;;;;;47.03;7.55;;;;;;;12.16;100.00;100783.44;5084842;27;20031;-72
2021/12/30 01:07:50;;;;;;;44.80;7.03;;;;;;;12.15;100.00;100776.22;5098913;27;20065;-72
2021/12/30 01:10:17;;;;;;;41.75;6.07;;;;;;;12.15;100.00;100787.38;5102506;27;20038;-72
2021/12/30 01:12:43;;;;;;;45.05;7.22;;;;;;;12.14;100.00;100779.31;5083756;27;20110;-72
2021/12/30 01:15:10;;;;;;;43.03;6.97;;;;;;;12.14;100.00;100782.91;5115470;27;20089;-72
2021/12/30 01:17:59;;;;;;;49.72;6.40;;;;;;;12.15;100.00;100789.34;5081887;27;20033;-72
2021/12/30 01:20:24;;;;;;;56.35;6.88;;;;;;;12.13;100.00;100794.34;5086848;27;20499;-72
2021/12/30 01:22:51;;;;;;;40.50;6.45;;;;;;;12.11;100.00;100794.66;5104633;27;20024;-72
2021/12/30 01:25:17;;;;;;;50.08;7.68;;;;;;;12.10;100.00;100798.56;5085417;27;20019;-72
2021/12/30 01:27:42;;;;;;;39.30;6.55;;;;;;;12.12;100.00;100793.53;5082829;27;20122;-72
2021/12/30 01:30:11;;;;;;;39.20;6.95;;;;;;;12.11;100.00;100808.56;5099038;27;20092;-72
2021/12/30 01:32:37;;;;;;;42.95;6.78;;;;;;;12.10;100.00;100806.09;5109841;27;20537;-72
2021/12/30 01:35:04;;;;;;;48.55;7.38;;;;;;;12.09;100.00;100808.06;5102724;27;20168;-73
2021/12/30 01:37:30;;;;;;;37.88;5.43;;;;;;;12.09;100.00;100805.28;5111296;27;20387;-72
2021/12/30 01:39:55;;;;;;;38.30;7.05;;;;;;;12.07;100.00;100808.34;5075814;27;20083;-72
2021/12/30 01:42:22;;;;;;;44.03;5.55;;;;;;;12.07;100.00;100799.97;5100109;27;20026;-72
2021/12/30 01:44:48;;;;;;;39.33;5.63;;;;;;;12.07;100.00;100796.38;5077100;27;20026;-72
2021/12/30 01:47:13;;;;;;;38.10;5.75;;;;;;;12.06;100.00;100794.69;5089374;27;20056;-72
2021/12/30 01:49:39;;;;;;;33.22;5.72;;;;;;;12.06;100.00;100801.13;5094582;27;20098;-72
2021/12/30 01:52:04;;;;;;;33.08;5.55;;;;;;;12.05;100.00;100801.41;5073212;28;20055;-72
2021/12/30 01:54:30;;;;;;;44.95;6.72;;;;;;;12.05;100.00;100801.41;5069332;27;20023;-72
2021/12/30 01:56:59;;;;;;;31.23;5.72;;;;;;;12.03;100.00;100798.09;5088783;27;20030;-72
2021/12/30 01:59:24;;;;;;;51.08;6.03;;;;;;;12.01;100.00;100798.41;5085934;27;20095;-72
2021/12/30 02:01:56;;;;;;;41.53;6.53;;;;;;;12.02;100.00;100804.78;5072144;27;20032;-72
2021/12/30 02:04:23;;;;;;;31.52;6.00;;;;;;;11.99;100.00;100794.25;5084977;27;20094;-72
2021/12/30 02:06:49;;;;;;;43.78;6.38;;;;;;;11.97;100.00;100804.84;5096274;27;20038;-72
2021/12/30 02:09:16;;;;;;;37.33;6.13;;;;;;;11.95;100.00;100802.38;5119792;27;20023;-72
2021/12/30 02:11:41;;;;;;;33.13;5.47;;;;;;;11.95;100.00;100799.59;5094845;27;20059;-72
2021/12/30 02:14:07;;;;;;;32.40;5.40;;;;;;;11.92;100.00;100794.59;5092930;27;20702;-72
2021/12/30 02:16:32;;;;;;;31.90;5.50;;;;;;;11.91;100.00;100797.69;5100960;27;20019;-72
2021/12/30 02:18:58;;;;;;;33.88;5.25;;;;;;;11.90;100.00;100807.16;5114880;27;20027;-72
2021/12/30 02:21:23;;;;;;;35.42;5.63;;;;;;;11.87;100.00;100818.88;5105083;27;20034;-72
2021/12/30 02:23:49;;;;;;;31.10;5.60;;;;;;;11.85;100.00;100819.16;5137432;27;20140;-72
2021/12/30 02:26:16;;;;;;;40.13;5.75;;;;;;;11.80;100.00;100814.44;5082578;27;20540;-72
2021/12/30 02:28:42;;;;;;;31.80;5.72;;;;;;;11.81;100.00;100816.13;5083352;27;20036;-72
2021/12/30 02:31:13;;;;;;;36.95;6.13;;;;;;;11.77;100.00;100812.25;5082492;28;20031;-72
2021/12/30 02:33:39;;;;;;;41.38;6.15;;;;;;;11.75;100.00;100811.72;5075671;27;21279;-72
2021/12/30 02:36:05;;;;;;;30.63;4.80;;;;;;;11.73;100.00;100813.13;5097464;27;20057;-72
2021/12/30 02:38:30;;;;;;;36.20;6.05;;;;;;;11.69;100.00;100818.47;5082222;28;20026;-72
2021/12/30 02:40:58;;;;;;;30.10;4.65;;;;;;;11.65;100.00;100822.97;5093473;27;20039;-72
2021/12/30 02:43:25;;;;;;;34.97;6.15;;;;;;;11.63;100.00;100833.56;5097797;28;20042;-72
2021/12/30 02:45:50;;;;;;;25.35;4.93;;;;;;;11.58;100.00;100834.44;5065538;28;20717;-72
2021/12/30 02:48:17;;;;;;;36.90;5.50;;;;;;;11.53;100.00;100825.31;5074154;27;20027;-72
2021/12/30 02:50:43;;;;;;;32.20;4.95;;;;;;;11.48;100.00;100822.56;5106500;27;20038;-72
2021/12/30 02:53:09;;;;;;;30.50;4.60;;;;;;;11.46;100.00;100824.84;5131287;27;20118;-72
2021/12/30 02:55:34;;;;;;;32.20;5.57;;;;;;;11.40;100.00;100821.28;5112648;28;20019;-72
2021/12/30 02:58:00;;;;;;;31.95;5.60;;;;;;;11.34;100.00;100819.66;5083038;27;20055;-72
2021/12/30 03:00:25;;;;;;;36.60;5.55;;;;;;;11.32;100.00;100819.94;5098414;27;20076;-72
2021/12/30 03:02:51;;;;;;;30.90;4.78;;;;;;;11.24;100.00;100806.66;5081381;28;20047;-72
2021/12/30 03:05:18;;;;;;;27.50;5.10;;;;;;;11.21;100.00;100815.59;5077488;27;20027;-72
2021/12/30 03:07:44;;;;;;;30.15;4.68;;;;;;;11.15;100.00;100814.81;5101190;27;20027;-72
2021/12/30 03:10:14;;;;;;;32.92;5.15;;;;;;;11.09;100.00;100810.41;5094777;27;20033;-72
2021/12/30 03:12:39;;;;;;;29.58;4.90;;;;;;;11.08;100.00;100810.69;5097409;28;20395;-72
2021/12/30 03:15:05;;;;;;;27.70;4.80;;;;;;;11.01;100.00;100807.44;5097813;27;20090;-72
2021/12/30 03:17:30;;;;;;;28.23;5.03;;;;;;;10.95;100.00;100821.34;5098988;28;20036;-72
2021/12/30 03:19:56;;;;;;;27.67;4.22;;;;;;;10.91;100.00;100825.81;5104752;27;20019;-72
2021/12/30 03:22:22;;;;;;;35.72;4.90;;;;;;;10.90;100.00;100823.34;5101010;27;20023;-72
2021/12/30 03:24:48;;;;;;;29.08;4.55;;;;;;;10.86;100.00;100816.69;5092055;27;20031;-72
2021/12/30 03:27:14;;;;;;;28.40;4.93;;;;;;;10.83;100.00;100822.81;5120596;27;20052;-72
2021/12/30 03:29:39;;;;;;;36.03;5.28;;;;;;;10.82;100.00;100816.44;5077105;28;20043;-72
2021/12/30 03:32:05;;;;;;;29.25;4.95;;;;;;;10.79;100.00;100822.56;5090598;28;20036;-72
2021/12/30 03:34:30;;;;;;;33.05;5.13;;;;;;;10.74;100.00;100826.19;5108484;28;20490;-72
2021/12/30 03:36:56;;;;;;;28.25;4.70;;;;;;;10.75;100.00;100824.25;5081885;28;20028;-72
2021/12/30 03:39:21;;;;;;;27.33;5.22;;;;;;;10.73;100.00;100813.44;5062513;28;20032;-72
2021/12/30 03:41:47;;;;;;;32.90;5.22;;;;;;;10.75;100.00;100827.03;5094296;28;20049;-72
2021/12/30 03:44:12;;;;;;;31.30;5.35;;;;;;;10.73;100.00;100824.56;5052837;28;20039;-72
2021/12/30 03:46:38;;;;;;;27.25;4.97;;;;;;;10.74;100.00;100825.38;5071588;28;20023;-73
2021/12/30 03:49:06;;;;;;;34.67;5.53;;;;;;;10.73;100.00;100830.09;5077010;28;20092;-72
2021/12/30 03:51:38;;;;;;;28.77;5.28;;;;;;;10.74;100.00;100833.72;5078655;28;20081;-72
2021/12/30 03:54:03;;;;;;;40.77;5.03;;;;;;;10.76;100.00;100834.25;5094825;28;20463;-72
2021/12/30 03:56:29;;;;;;;31.48;5.00;;;;;;;10.78;100.00;100843.16;5062822;28;20034;-72
2021/12/30 03:58:54;;;;;;;30.00;5.70;;;;;;;10.80;100.00;100834.50;5092021;28;20027;-72
2021/12/30 04:01:22;;;;;;;30.08;4.57;;;;;;;10.80;100.00;100835.34;5078281;28;20455;-72
2021/12/30 04:03:48;;;;;;;29.25;5.22;;;;;;;10.81;100.00;100837.00;5060471;28;20456;-72
2021/12/30 04:06:14;;;;;;;28.55;4.60;;;;;;;10.85;100.00;100832.53;5062407;28;20017;-72
2021/12/30 04:08:40;;;;;;;27.23;4.93;;;;;;;10.86;100.00;100834.19;5083494;28;20103;-72
2021/12/30 04:11:05;;;;;;;35.58;5.80;;;;;;;10.87;100.00;100835.03;5103512;28;20024;-72
2021/12/30 04:13:31;;;;;;;32.17;5.18;;;;;;;10.87;100.00;100846.97;5078240;28;20040;-72
2021/12/30 04:15:57;;;;;;;44.55;5.03;;;;;;;10.89;100.00;100838.31;5087232;28;20796;-72
2021/12/30 04:18:22;;;;;;;24.67;4.32;;;;;;;10.89;100.00;100841.09;5062020;28;20145;-72
2021/12/30 04:20:48;;;;;;;36.72;5.22;;;;;;;10.91;100.00;100836.09;5093887;28;20024;-72
2021/12/30 04:23:14;;;;;;;29.27;5.70;;;;;;;10.92;100.00;100843.31;5093244;28;20046;-72
2021/12/30 04:25:40;;;;;;;38.30;4.82;;;;;;;10.93;100.00;100845.00;5060048;28;20028;-72
2021/12/30 04:28:06;;;;;;;31.17;4.75;;;;;;;10.94;100.00;100841.91;5059023;28;20464;-72
2021/12/30 04:30:31;;;;;;;28.55;4.80;;;;;;;10.97;100.00;100834.94;5110508;28;20051;-72
2021/12/30 04:32:57;;;;;;;32.40;5.03;;;;;;;10.97;100.00;100832.16;5091464;28;20043;-72
2021/12/30 04:35:23;;;;;;;29.50;4.45;;;;;;;10.99;100.00;100820.78;5110598;28;20777;-72
2021/12/30 04:37:48;;;;;;;33.95;5.20;;;;;;;11.01;100.00;100824.09;5058715;28;20047;-72
2021/12/30 04:40:14;;;;;;;29.70;4.25;;;;;;;11.01;100.00;100827.69;5067812;28;20039;-72
2021/12/30 04:42:40;;;;;;;29.23;5.15;;;;;;;11.02;100.00;100826.56;5072379;28;20073;-72
2021/12/30 04:45:06;;;;;;;32.08;5.65;;;;;;;11.02;100.00;100825.75;5079873;28;20023;-72
2021/12/30 04:47:31;;;;;;;33.05;4.38;;;;;;;11.03;100.00;100824.63;5099214;28;20016;-72
2021/12/30 04:49:58;;;;;;;32.70;4.47;;;;;;;11.04;100.00;100829.91;5077844;28;20028;-72
2021/12/30 04:52:24;;;;;;;27.55;5.30;;;;;;;11.06;100.00;100840.72;5062399;28;20031;-72
2021/12/30 04:54:49;;;;;;;22.92;4.45;;;;;;;11.07;100.00;100842.38;5097834;28;20020;-72
2021/12/30 04:57:15;;;;;;;21.67;4.20;;;;;;;11.08;100.00;100835.69;5060828;28;20032;-72
2021/12/30 04:59:41;;;;;;;29.90;5.72;;;;;;;11.08;100.00;100838.47;5059253;28;20040;-72
2021/12/30 05:02:06;;;;;;;28.42;5.47;;;;;;;11.08;100.00;100850.41;5096964;28;20034;-72
2021/12/30 05:04:32;;;;;;;33.65;4.88;;;;;;;11.10;100.00;100852.94;5079661;28;20076;-72
2021/12/30 05:06:57;;;;;;;26.13;4.43;;;;;;;11.10;100.00;100850.16;5081334;28;20048;-72
2021/12/30 05:09:23;;;;;;;28.42;4.18;;;;;;;11.11;100.00;100843.47;5096239;28;20045;-72
2021/12/30 05:11:48;;;;;;;19.48;3.83;;;;;;;11.12;100.00;100842.34;5071969;28;20036;-72
2021/12/30 05:14:14;;;;;;;21.58;4.43;;;;;;;11.10;100.00;100839.84;5067483;28;20042;-72
2021/12/30 05:16:40;;;;;;;26.10;3.90;;;;;;;11.12;100.00;100837.63;5071085;28;20050;-72
2021/12/30 05:19:05;;;;;;;22.48;3.80;;;;;;;11.13;100.00;100846.78;5083888;28;20047;-72
2021/12/30 05:21:31;;;;;;;23.55;4.50;;;;;;;11.13;100.00;100841.22;5080882;28;20024;-72
2021/12/30 05:23:56;;;;;;;20.58;4.88;;;;;;;11.14;100.00;100843.72;5074278;28;20017;-72
2021/12/30 05:26:27;;;;;;;25.20;3.95;;;;;;;11.14;100.00;100842.88;5079817;28;20031;-72
2021/12/30 05:28:53;;;;;;;17.30;3.60;;;;;;;11.16;100.00;100854.53;5075061;27;20051;-72
2021/12/30 05:31:18;;;;;;;24.52;3.95;;;;;;;11.16;100.00;100857.31;5077190;27;20046;-72
2021/12/30 05:33:43;;;;;;;19.80;3.83;;;;;;;11.16;100.00;100862.88;5097797;27;20471;-73
2021/12/30 05:36:09;;;;;;;24.27;3.90;;;;;;;11.16;100.00;100866.47;5053892;27;20035;-72
2021/12/30 05:38:34;;;;;;;24.02;4.10;;;;;;;11.16;100.00;100874.81;5111604;27;20024;-72
2021/12/30 05:41:00;;;;;;;23.75;4.43;;;;;;;11.18;100.00;100877.34;5064937;28;20032;-72
2021/12/30 05:43:25;;;;;;;29.58;4.40;;;;;;;11.18;100.00;100866.22;5099314;27;20085;-72
2021/12/30 05:45:51;;;;;;;20.42;4.15;;;;;;;11.19;100.00;100876.19;5100644;28;20081;-72
2021/12/30 05:48:17;;;;;;;25.92;4.65;;;;;;;11.19;100.00;100874.25;5070293;27;20039;-72
2021/12/30 05:50:42;;;;;;;19.75;2.90;;;;;;;11.19;100.00;100870.63;5052407;27;20078;-72
2021/12/30 05:53:08;;;;;;;26.95;4.38;;;;;;;11.19;100.00;100873.41;5084916;27;20092;-73
2021/12/30 05:55:34;;;;;;;21.65;3.20;;;;;;;11.19;100.00;100870.63;5069790;27;20031;-73
2021/12/30 05:57:59;;;;;;;22.38;3.67;;;;;;;11.21;100.00;100876.75;5079285;27;20043;-72
2021/12/30 06:00:27;;;;;;;24.40;3.40;;;;;;;11.21;100.00;100870.38;5067344;28;20028;-72
2021/12/30 06:02:53;;;;;;;16.30;3.33;;;;;;;11.21;100.00;100871.19;5085253;27;20023;-73
2021/12/30 06:05:18;;;;;;;27.20;4.60;;;;;;;11.21;100.00;100873.97;5118008;27;20106;-72
2021/12/30 06:07:44;;;;;;;22.73;3.42;;;;;;;11.23;100.00;100874.50;5108285;27;20027;-72
2021/12/30 06:10:10;;;;;;;20.02;3.65;;;;;;;11.23;100.00;100871.75;5091870;28;20024;-72
2021/12/30 06:12:36;;;;;;;21.45;3.88;;;;;;;11.23;100.00;100871.75;5083023;27;20096;-72
2021/12/30 06:15:01;;;;;;;17.70;3.30;;;;;;;11.23;100.00;100877.28;5086257;28;20035;-72
2021/12/30 06:17:27;;;;;;;20.02;3.53;;;;;;;11.24;100.00;100873.38;5121770;27;20552;-72
2021/12/30 06:19:52;;;;;;;17.25;3.42;;;;;;;11.23;100.00;100860.63;5078604;27;20031;-72
2021/12/30 06:22:18;;;;;;;18.05;3.22;;;;;;;11.24;100.00;100855.88;5106561;27;20062;-72
2021/12/30 06:24:43;;;;;;;11.57;3.22;;;;;;;11.23;100.00;100854.19;5076125;27;20035;-72
2021/12/30 06:27:09;;;;;;;23.02;3.75;;;;;;;11.25;100.00;100851.97;5091562;27;20085;-72
2021/12/30 06:29:35;;;;;;;17.70;3.30;;;;;;;11.25;100.00;100855.56;5115240;27;20058;-72
2021/12/30 06:32:01;;;;;;;16.35;3.10;;;;;;;11.24;100.00;100859.50;5124632;27;20035;-72
2021/12/30 06:34:26;;;;;;;16.75;3.00;;;;;;;11.24;100.00;100872.56;5137346;27;20039;-72
2021/12/30 06:36:52;;;;;;;25.77;4.05;;;;;;;11.23;100.00;100877.28;5109538;27;20026;-72
2021/12/30 06:39:17;;;;;;;18.67;2.95;;;;;;;11.24;100.00;100878.13;5125879;27;20031;-72
2021/12/30 06:41:43;;;;;;;19.20;3.13;;;;;;;11.22;100.00;100881.19;5069348;27;20038;-72
2021/12/30 06:44:08;;;;;;;23.27;3.58;;;;;;;11.22;100.00;100881.19;5073063;27;20027;-72
2021/12/30 06:46:34;;;;;;;15.60;3.25;;;;;;;11.22;100.00;100877.56;5102211;27;20016;-72
2021/12/30 06:49:00;;;;;;;20.30;3.47;;;;;;;11.21;100.00;100882.31;5085356;27;20019;-72
2021/12/30 06:51:27;;;;;;;18.30;3.20;;;;;;;11.20;100.00;100875.09;5101843;27;20046;-72
2021/12/30 06:53:56;;;;;;;19.23;3.65;;;;;;;11.20;100.00;100877.88;5082744;27;20042;-72
2021/12/30 06:56:22;;;;;;;15.35;2.80;;;;;;;11.19;100.00;100881.75;5087309;27;20027;-72
2021/12/30 06:58:47;;;;;;;12.75;3.28;;;;;;;11.18;100.00;100882.88;5097683;27;20031;-72
2021/12/30 07:01:13;;;;;;;18.00;2.83;;;;;;;11.17;100.00;100881.22;5080352;27;20080;-72
2021/12/30 07:03:38;;;;;;;16.98;3.88;;;;;;;11.16;100.00;100883.16;5117754;27;20087;-72
2021/12/30 07:06:04;;;;;;;23.15;3.60;;;;;;;11.16;100.00;100877.59;5086307;27;20026;-72
2021/12/30 07:08:29;;;;;;;14.27;2.67;;;;;;;11.17;100.00;100884.00;5108856;27;20076;-72
2021/12/30 07:10:55;;;;;;;15.02;3.08;;;;;;;11.16;100.00;100896.25;5131474;27;20030;-72
2021/12/30 07:13:20;;;;;;;21.23;3.80;;;;;;;11.14;100.00;100884.56;5097062;27;20034;-72
2021/12/30 07:15:46;;;;;;;16.98;2.53;;;;;;;11.14;100.00;100895.69;5086565;27;20031;-72
2021/12/30 07:18:11;;;;;;;15.68;3.22;;;;;;;11.13;100.00;100903.22;5084942;27;20031;-72
2021/12/30 07:20:37;;;;;;;16.10;3.35;;;;;;;11.12;100.00;100906.28;5100460;27;20054;-72
2021/12/30 07:23:02;;;;;;;17.55;3.67;;;;;;;11.12;100.00;100917.41;5076827;27;20075;-72
2021/12/30 07:25:28;;;;;;;14.25;3.38;;;;;;;11.11;100.00;100912.94;5099399;27;20055;-72
2021/12/30 07:27:54;;;;;;;20.23;3.20;;;;;;;11.10;100.00;100917.69;5081949;28;20539;-74
2021/12/30 07:30:21;;;;;;;15.23;3.47;;;;;;;11.12;100.00;100920.19;5076176;28;20047;-73
2021/12/30 07:32:48;;;;;;;20.80;3.42;;;;;;;11.10;100.00;100917.69;5055036;28;20050;-72
2021/12/30 07:35:14;;;;;;;22.25;4.18;;;;;;;11.11;100.00;100921.28;5093287;28;20023;-74
2021/12/30 07:37:39;;;;;;;14.95;3.13;;;;;;;11.11;100.00;100927.66;5116581;28;20484;-76
2021/12/30 07:40:05;;;;;;;19.83;3.17;;;;;;;11.12;100.00;100932.13;5106434;27;20046;-75
2021/12/30 07:42:31;;;;;;;15.82;3.05;;;;;;;11.11;100.00;100932.41;5111832;27;20027;-75
2021/12/30 07:44:56;;;;;;;15.60;3.05;;;;;;;11.12;100.00;100931.31;5083864;28;20099;-74
2021/12/30 07:47:22;;;;;;;17.67;3.08;;;;;;;11.12;100.00;100936.88;5111054;28;20434;-75
2021/12/30 07:49:47;;;;;;;18.15;3.35;;;;;;;11.12;100.00;100942.44;5115502;28;20026;-75
2021/12/30 07:52:13;;;;;;;18.25;3.58;;;;;;;11.14;100.00;100942.94;5113890;28;20028;-75
2021/12/30 07:54:38;;;;;;;20.40;3.05;;;;;;;11.14;100.00;100934.59;5112919;28;20146;-75
2021/12/30 07:57:04;;;;;;;19.70;3.33;;;;;;;11.15;100.00;100939.06;5115731;28;20027;-74
2021/12/30 07:59:29;;;;;;;19.95;3.03;;;;;;;11.15;100.00;100944.63;5110114;28;20028;-74
2021/12/30 08:01:56;;;;;;;20.92;3.40;;;;;;;11.16;100.00;100937.94;5111376;28;20475;-75
2021/12/30 08:04:21;;;;;;;21.85;3.80;;;;;;;11.15;100.00;100939.91;5113089;28;20031;-75
2021/12/30 08:06:47;;;;;;;19.88;3.38;;;;;;;11.16;100.00;100949.88;5095921;28;20408;-75
2021/12/30 08:09:12;;;;;;;21.05;4.30;;;;;;;11.17;100.00;100948.78;5116628;28;20574;-75
2021/12/30 08:11:38;;;;;;;22.33;3.25;;;;;;;11.17;100.00;100951.56;5094788;28;20027;-75
2021/12/30 08:14:03;;;;;;;19.00;2.80;;;;;;;11.16;100.00;100943.50;5115012;28;20031;-75
2021/12/30 08:16:29;;;;;;;26.85;4.20;;;;;;;11.18;100.00;100947.66;5102955;28;20027;-75
2021/12/30 08:18:55;;;;;;;14.73;3.35;;;;;;;11.18;100.00;100952.38;5093702;28;20023;-75
2021/12/30 08:21:20;;;;;;;16.92;3.33;;;;;;;11.19;100.00;100959.59;5112579;28;20085;-74
2021/12/30 08:23:51;;;;;;;22.75;3.53;;;;;;;11.19;100.00;100951.25;5107533;27;20540;-75
2021/12/30 08:26:17;;;;;;;21.17;3.60;;;;;;;11.19;100.00;100954.03;5109443;27;20055;-75
2021/12/30 08:28:42;;;;;;;14.85;3.05;;;;;;;11.21;100.00;100967.66;5131223;27;20372;-75
2021/12/30 08:31:07;;;;;;;12.52;2.67;;;;;;;11.21;100.00;100959.31;5121366;27;20039;-74
2021/12/30 08:33:33;;;;;;;16.00;3.50;;;;;;;11.22;100.00;100961.81;5121260;27;20019;-74
2021/12/30 08:35:58;;;;;;;18.30;2.95;;;;;;;11.22;100.00;100969.31;5136627;27;20083;-75
2021/12/30 08:38:24;;;;;;;15.18;3.55;;;;;;;11.23;100.00;100977.38;5134714;27;20027;-75
2021/12/30 08:40:50;;;;;;;16.40;2.65;;;;;;;11.24;100.00;100972.66;5129267;27;20087;-74
2021/12/30 08:43:16;;;;;;;17.20;3.42;;;;;;;11.24;100.00;100967.91;5140329;27;20058;-75
2021/12/30 08:45:42;;;;;;;16.77;3.33;;;;;;;11.24;100.00;100965.13;5119524;27;20023;-74
2021/12/30 08:48:08;;;;;;;14.80;2.78;;;;;;;11.26;100.00;100971.25;5139748;27;20027;-75
2021/12/30 08:50:34;;;;;;;21.95;3.25;;;;;;;11.26;100.00;100970.41;5136847;27;20130;-75
2021/12/30 08:52:59;;;;;;;20.40;3.08;;;;;;;11.28;100.00;100966.25;5115988;27;20023;-74
2021/12/30 08:55:25;;;;;;;16.48;3.42;;;;;;;11.29;100.00;100972.63;5119633;27;20054;-74
2021/12/30 08:57:51;;;;;;;14.50;2.60;;;;;;;11.29;100.00;100980.97;5127911;27;20106;-75
2021/12/30 09:00:23;;;;;;;15.05;3.00;;;;;;;11.32;100.00;100986.78;5135984;27;20023;-75
2021/12/30 09:02:50;;;;;;;19.95;3.05;;;;;;;11.33;100.00;100984.81;5128309;27;20059;-75
2021/12/30 09:05:16;;;;;;;18.83;3.00;;;;;;;11.32;100.00;100983.16;5138100;27;20031;-75
2021/12/30 09:07:42;;;;;;;22.42;4.00;;;;;;;11.34;100.00;100989.28;5136003;27;20039;-74
2021/12/30 09:10:08;;;;;;;22.15;2.97;;;;;;;11.34;100.00;100986.50;5138795;27;20068;-74
2021/12/30 09:12:34;;;;;;;18.20;2.90;;;;;;;11.35;100.00;100986.19;5135777;27;20027;-75
2021/12/30 09:14:59;;;;;;;17.08;2.63;;;;;;;11.38;100.00;100988.41;5136577;27;20076;-75
2021/12/30 09:17:25;;;;;;;15.30;2.95;;;;;;;11.38;100.00;100990.34;5129796;27;20031;-76
2021/12/30 09:19:50;;;;;;;15.90;3.33;;;;;;;11.39;100.00;100992.00;5132606;27;20080;-76
2021/12/30 09:22:16;;;;;;;15.40;2.72;;;;;;;11.40;100.00;100991.72;5139202;27;20027;-76
2021/12/30 09:24:41;;;;;;;21.58;3.03;;;;;;;11.42;100.00;100991.44;5138394;27;20038;-76
2021/12/30 09:27:07;;;;;;;13.50;2.85;;;;;;;11.44;100.00;100991.16;5123226;27;20035;-76
2021/12/30 09:29:32;;;;;;;12.20;2.80;;;;;;;11.45;100.00;100990.88;5102331;28;20072;-76
2021/12/30 09:31:58;;;;;;;15.95;2.85;;;;;;;11.47;100.00;100996.13;5095751;28;20083;-76
2021/12/30 09:34:24;;;;;;;15.10;3.10;;;;;;;11.49;100.00;100989.16;5114602;27;20107;-75
2021/12/30 09:36:49;;;;;;;16.40;2.80;;;;;;;11.49;100.00;100989.16;5108225;27;20035;-76
2021/12/30 09:39:15;;;;;;;15.88;2.75;;;;;;;11.52;100.00;100996.09;5114379;27;20024;-76
2021/12/30 09:41:43;;;;;;;17.20;3.33;;;;;;;11.53;100.00;100997.75;5097808;28;20036;-76
2021/12/30 09:44:10;;;;;;;22.60;3.50;;;;;;;11.56;100.00;100994.41;5116725;27;20095;-76
2021/12/30 09:46:36;;;;;;;21.42;3.35;;;;;;;11.60;100.00;100992.72;5114089;27;20023;-76
2021/12/30 09:49:03;;;;;;;18.95;3.20;;;;;;;11.61;100.00;100984.06;5099326;28;20042;-76
2021/12/30 09:51:28;;;;;;;16.98;3.13;;;;;;;11.63;100.00;100987.38;5074636;27;20038;-76
2021/12/30 09:53:54;;;;;;;13.40;3.22;;;;;;;11.68;100.00;100983.75;5102897;27;20039;-76
2021/12/30 09:56:20;;;;;;;22.25;3.55;;;;;;;11.70;100.00;100995.44;5120302;27;20024;-76
2021/12/30 09:58:45;;;;;;;19.33;3.67;;;;;;;11.74;100.00;100998.44;5091952;28;20092;-76
2021/12/30 10:01:11;;;;;;;12.93;2.40;;;;;;;11.77;100.00;100992.31;5100099;28;20462;-76
2021/12/30 10:03:36;;;;;;;21.33;3.35;;;;;;;11.81;100.00;100994.22;5103305;28;20024;-76
2021/12/30 10:06:06;;;;;;;28.55;4.00;;;;;;;11.85;100.00;100995.31;5097287;28;20035;-76
2021/12/30 10:08:36;;;;;;;21.98;3.95;;;;;;;11.87;100.00;100991.41;5116023;28;20553;-76
2021/12/30 10:11:05;;;;;;;20.00;3.58;;;;;;;11.92;100.00;100999.72;5092364;27;20506;-75
2021/12/30 10:13:32;;;;;;;24.92;3.75;;;;;;;11.96;100.00;101004.44;5094122;28;20524;-75
2021/12/30 10:16:02;;;;;;;23.27;3.40;;;;;;;12.00;100.00;101007.44;5108097;28;20054;-76
2021/12/30 10:18:44;;;;;;;18.67;3.70;;;;;;;12.04;100.00;101011.31;5129405;27;20070;-76
2021/12/30 10:21:38;;;;;;;20.50;3.53;;;;;;;12.07;100.00;101017.13;5098886;27;20114;-76
2021/12/30 10:24:09;;;;;;;16.10;2.80;;;;;;;12.11;100.00;101002.63;5121132;27;20062;-76
2021/12/30 10:26:52;;;;;;;13.93;2.88;;;;;;;12.17;100.00;101004.22;5096656;27;20023;-75
2021/12/30 10:29:18;;;;;;;;;;;;;;;12.21;100.00;101006.16;5104865;28;20044;-75
2021/12/30 10:31:43;;;;;;;24.60;3.70;;;;;;;12.27;100.00;101004.16;5106792;28;19979;-76
2021/12/30 10:34:10;;;;;;;24.15;3.20;;;;;;;12.32;100.00;101000.50;5092714;27;20027;-75
2021/12/30 10:36:41;;;;;;;22.55;4.28;;;;;;;12.37;100.00;100997.63;5101271;27;20069;-76
2021/12/30 10:39:27;;;;;;;22.42;3.60;;;;;;;12.42;100.00;101008.72;5126409;27;20081;-75
2021/12/30 10:41:54;;;;;;;20.80;3.80;;;;;;;12.46;100.00;101004.25;5103557;27;20035;-76
2021/12/30 10:44:20;;;;;;;22.50;3.60;;;;;;;12.51;100.00;101002.22;5093138;28;20059;-76
2021/12/30 10:46:46;;;;;;;16.90;3.38;;;;;;;12.57;100.00;101000.22;5107744;28;20114;-75
2021/12/30 10:49:26;;;;;;;17.33;3.38;;;;;;;12.62;100.00;101007.66;5114955;27;20058;-76
2021/12/30 10:51:52;;;;;;;21.67;3.08;;;;;;;12.66;100.00;101001.22;5118790;27;20024;-75
2021/12/30 10:54:28;;;;;;;23.30;3.55;;;;;;;12.72;100.00;100997.25;5119840;27;20046;-76
2021/12/30 10:57:07;;;;;;;22.98;3.50;;;;;;;12.77;100.00;101010.28;5095669;28;20059;-77
2021/12/30 10:59:47;;;;;;;22.52;3.20;;;;;;;12.82;100.00;101007.44;5045850;28;20028;-77
2021/12/30 11:02:22;;;;;;;26.05;3.63;;;;;;;12.89;100.00;101007.09;5117102;27;20031;-77
2021/12/30 11:04:49;;;;;;;20.25;3.25;;;;;;;12.93;100.00;101005.38;5089724;28;20031;-76
2021/12/30 11:07:19;;;;;;;21.70;3.80;;;;;;;13.01;100.00;101007.50;5095394;28;20120;-76